sensor_id;sensor_type;location;lat;lon;timestamp;P1;durP1;ratioP1;P2;durP2;ratioP2
61505;SDS011;47366;51.916;4.574;2023-02-15T00:00:10;7.93;;;4.28;;
61505;SDS011;47366;51.916;4.574;2023-02-15T00:02:36;9.50;;;5.28;;
61505;SDS011;47366;51.916;4.574;2023-02-15T00:05:01;7.40;;;6.20;;
61505;SDS011;47366;51.916;4.574;2023-02-15T00:07:27;8.35;;;4.82;;
61505;SDS011;47366;51.916;4.574;2023-02-15T00:09:52;11.35;;;6.68;;
61505;SDS011;47366;51.916;4.574;2023-02-15T00:12:17;6.88;;;5.07;;
61505;SDS011;47366;51.916;4.574;2023-02-15T00:14:43;6.82;;;4.78;;
61505;SDS011;47366;51.916;4.574;2023-02-15T00:17:08;7.03;;;5.65;;
61505;SDS011;47366;51.916;4.574;2023-02-15T00:19:34;6.80;;;4.45;;
61505;SDS011;47366;51.916;4.574;2023-02-15T00:21:59;8.43;;;5.50;;
61505;SDS011;47366;51.916;4.574;2023-02-15T00:24:25;5.75;;;3.85;;
61505;SDS011;47366;51.916;4.574;2023-02-15T00:26:50;8.13;;;5.32;;
61505;SDS011;47366;51.916;4.574;2023-02-15T00:29:17;7.95;;;5.15;;
61505;SDS011;47366;51.916;4.574;2023-02-15T00:31:44;6.60;;;4.35;;
61505;SDS011;47366;51.916;4.574;2023-02-15T00:34:20;9.52;;;5.85;;
61505;SDS011;47366;51.916;4.574;2023-02-15T00:36:48;6.55;;;4.65;;
61505;SDS011;47366;51.916;4.574;2023-02-15T00:39:15;7.20;;;5.25;;
61505;SDS011;47366;51.916;4.574;2023-02-15T00:41:41;5.18;;;3.67;;
61505;SDS011;47366;51.916;4.574;2023-02-15T00:44:07;10.95;;;4.75;;
61505;SDS011;47366;51.916;4.574;2023-02-15T00:46:33;10.38;;;5.68;;
61505;SDS011;47366;51.916;4.574;2023-02-15T00:48:59;11.25;;;6.47;;
61505;SDS011;47366;51.916;4.574;2023-02-15T00:51:24;10.43;;;6.15;;
61505;SDS011;47366;51.916;4.574;2023-02-15T00:53:50;5.47;;;4.03;;
61505;SDS011;47366;51.916;4.574;2023-02-15T00:56:16;10.43;;;5.38;;
61505;SDS011;47366;51.916;4.574;2023-02-15T00:58:41;3.53;;;3.08;;
61505;SDS011;47366;51.916;4.574;2023-02-15T01:01:08;6.90;;;4.53;;
61505;SDS011;47366;51.916;4.574;2023-02-15T01:03:38;7.97;;;5.18;;
61505;SDS011;47366;51.916;4.574;2023-02-15T01:06:06;7.60;;;5.22;;
61505;SDS011;47366;51.916;4.574;2023-02-15T01:08:32;8.82;;;4.70;;
61505;SDS011;47366;51.916;4.574;2023-02-15T01:11:02;7.78;;;5.85;;
61505;SDS011;47366;51.916;4.574;2023-02-15T01:13:29;5.85;;;4.63;;
61505;SDS011;47366;51.916;4.574;2023-02-15T01:15:55;5.53;;;4.75;;
61505;SDS011;47366;51.916;4.574;2023-02-15T01:18:20;6.32;;;4.57;;
61505;SDS011;47366;51.916;4.574;2023-02-15T01:20:47;8.80;;;4.70;;
61505;SDS011;47366;51.916;4.574;2023-02-15T01:23:12;6.30;;;4.45;;
61505;SDS011;47366;51.916;4.574;2023-02-15T01:25:38;4.57;;;3.83;;
61505;SDS011;47366;51.916;4.574;2023-02-15T01:28:04;6.03;;;4.53;;
61505;SDS011;47366;51.916;4.574;2023-02-15T01:30:29;11.05;;;5.60;;
61505;SDS011;47366;51.916;4.574;2023-02-15T01:32:55;6.75;;;4.28;;
61505;SDS011;47366;51.916;4.574;2023-02-15T01:35:20;7.80;;;4.68;;
61505;SDS011;47366;51.916;4.574;2023-02-15T01:37:46;6.13;;;4.03;;
61505;SDS011;47366;51.916;4.574;2023-02-15T01:40:12;10.02;;;4.25;;
61505;SDS011;47366;51.916;4.574;2023-02-15T01:42:39;10.07;;;4.78;;
61505;SDS011;47366;51.916;4.574;2023-02-15T01:45:17;5.15;;;3.53;;
61505;SDS011;47366;51.916;4.574;2023-02-15T01:52:54;5.90;;;4.82;;
61505;SDS011;47366;51.916;4.574;2023-02-15T01:55:23;4.90;;;3.95;;
61505;SDS011;47366;51.916;4.574;2023-02-15T01:57:51;6.32;;;3.38;;
61505;SDS011;47366;51.916;4.574;2023-02-15T02:00:18;5.07;;;4.20;;
61505;SDS011;47366;51.916;4.574;2023-02-15T02:02:45;7.22;;;5.15;;
61505;SDS011;47366;51.916;4.574;2023-02-15T02:05:13;8.30;;;5.50;;
61505;SDS011;47366;51.916;4.574;2023-02-15T02:07:39;7.25;;;4.90;;
61505;SDS011;47366;51.916;4.574;2023-02-15T02:10:08;8.60;;;3.45;;
61505;SDS011;47366;51.916;4.574;2023-02-15T02:12:36;7.28;;;4.50;;
61505;SDS011;47366;51.916;4.574;2023-02-15T02:15:03;6.55;;;4.55;;
61505;SDS011;47366;51.916;4.574;2023-02-15T02:17:34;4.82;;;3.28;;
61505;SDS011;47366;51.916;4.574;2023-02-15T02:23:18;4.75;;;3.45;;
61505;SDS011;47366;51.916;4.574;2023-02-15T02:34:29;4.57;;;3.15;;
61505;SDS011;47366;51.916;4.574;2023-02-15T02:37:42;6.75;;;4.18;;
61505;SDS011;47366;51.916;4.574;2023-02-15T02:40:02;7.80;;;3.78;;
61505;SDS011;47366;51.916;4.574;2023-02-15T02:48:03;5.82;;;3.83;;
61505;SDS011;47366;51.916;4.574;2023-02-15T02:50:35;6.57;;;4.07;;
61505;SDS011;47366;51.916;4.574;2023-02-15T02:53:04;5.05;;;4.07;;
61505;SDS011;47366;51.916;4.574;2023-02-15T02:55:34;3.15;;;2.80;;
61505;SDS011;47366;51.916;4.574;2023-02-15T03:00:58;3.10;;;2.83;;
61505;SDS011;47366;51.916;4.574;2023-02-15T03:03:37;6.35;;;2.20;;
61505;SDS011;47366;51.916;4.574;2023-02-15T03:06:12;5.43;;;4.00;;
61505;SDS011;47366;51.916;4.574;2023-02-15T03:08:44;6.43;;;2.80;;
61505;SDS011;47366;51.916;4.574;2023-02-15T03:11:16;3.55;;;3.00;;
61505;SDS011;47366;51.916;4.574;2023-02-15T03:13:41;6.18;;;3.33;;
61505;SDS011;47366;51.916;4.574;2023-02-15T03:16:10;3.47;;;2.55;;
61505;SDS011;47366;51.916;4.574;2023-02-15T03:18:58;4.15;;;2.88;;
61505;SDS011;47366;51.916;4.574;2023-02-15T03:21:30;5.40;;;3.80;;
61505;SDS011;47366;51.916;4.574;2023-02-15T03:24:14;2.60;;;2.22;;
61505;SDS011;47366;51.916;4.574;2023-02-15T03:26:46;3.78;;;2.80;;
61505;SDS011;47366;51.916;4.574;2023-02-15T03:29:14;4.68;;;2.67;;
61505;SDS011;47366;51.916;4.574;2023-02-15T03:31:42;3.38;;;2.50;;
61505;SDS011;47366;51.916;4.574;2023-02-15T03:34:12;5.90;;;3.47;;
61505;SDS011;47366;51.916;4.574;2023-02-15T03:36:48;4.32;;;2.92;;
61505;SDS011;47366;51.916;4.574;2023-02-15T03:39:21;3.85;;;2.47;;
61505;SDS011;47366;51.916;4.574;2023-02-15T03:42:06;3.40;;;2.72;;
61505;SDS011;47366;51.916;4.574;2023-02-15T03:47:17;2.60;;;1.83;;
61505;SDS011;47366;51.916;4.574;2023-02-15T03:49:56;3.80;;;2.72;;
61505;SDS011;47366;51.916;4.574;2023-02-15T03:52:27;4.22;;;3.05;;
61505;SDS011;47366;51.916;4.574;2023-02-15T03:54:54;2.75;;;2.33;;
61505;SDS011;47366;51.916;4.574;2023-02-15T04:00:18;4.80;;;2.70;;
61505;SDS011;47366;51.916;4.574;2023-02-15T04:05:33;3.08;;;2.53;;
61505;SDS011;47366;51.916;4.574;2023-02-15T04:07:58;3.13;;;2.58;;
61505;SDS011;47366;51.916;4.574;2023-02-15T04:10:24;3.75;;;3.05;;
61505;SDS011;47366;51.916;4.574;2023-02-15T04:13:08;5.00;;;2.65;;
61505;SDS011;47366;51.916;4.574;2023-02-15T04:15:33;4.75;;;3.35;;
61505;SDS011;47366;51.916;4.574;2023-02-15T04:18:17;3.05;;;2.03;;
61505;SDS011;47366;51.916;4.574;2023-02-15T04:20:45;2.92;;;2.63;;
61505;SDS011;47366;51.916;4.574;2023-02-15T04:23:30;4.95;;;2.65;;
61505;SDS011;47366;51.916;4.574;2023-02-15T04:26:14;5.82;;;3.15;;
61505;SDS011;47366;51.916;4.574;2023-02-15T04:28:39;7.35;;;3.90;;
61505;SDS011;47366;51.916;4.574;2023-02-15T04:31:05;3.92;;;2.78;;
61505;SDS011;47366;51.916;4.574;2023-02-15T04:33:30;2.50;;;2.30;;
61505;SDS011;47366;51.916;4.574;2023-02-15T04:35:55;3.25;;;2.95;;
61505;SDS011;47366;51.916;4.574;2023-02-15T04:38:21;8.45;;;3.97;;
61505;SDS011;47366;51.916;4.574;2023-02-15T04:40:50;3.25;;;2.70;;
61505;SDS011;47366;51.916;4.574;2023-02-15T04:43:17;3.90;;;3.10;;
61505;SDS011;47366;51.916;4.574;2023-02-15T04:45:50;7.57;;;3.50;;
61505;SDS011;47366;51.916;4.574;2023-02-15T04:48:16;6.43;;;2.77;;
61505;SDS011;47366;51.916;4.574;2023-02-15T04:50:43;3.78;;;2.45;;
61505;SDS011;47366;51.916;4.574;2023-02-15T04:53:09;6.47;;;3.60;;
61505;SDS011;47366;51.916;4.574;2023-02-15T04:55:35;2.97;;;2.47;;
61505;SDS011;47366;51.916;4.574;2023-02-15T04:58:00;10.95;;;2.50;;
61505;SDS011;47366;51.916;4.574;2023-02-15T05:00:26;4.72;;;3.15;;
61505;SDS011;47366;51.916;4.574;2023-02-15T05:02:52;3.00;;;2.55;;
61505;SDS011;47366;51.916;4.574;2023-02-15T05:05:17;4.45;;;2.78;;
61505;SDS011;47366;51.916;4.574;2023-02-15T05:07:43;5.43;;;2.60;;
61505;SDS011;47366;51.916;4.574;2023-02-15T05:10:08;3.95;;;2.75;;
61505;SDS011;47366;51.916;4.574;2023-02-15T05:12:34;2.63;;;2.22;;
61505;SDS011;47366;51.916;4.574;2023-02-15T05:14:59;5.20;;;2.80;;
61505;SDS011;47366;51.916;4.574;2023-02-15T05:17:24;3.50;;;2.55;;
61505;SDS011;47366;51.916;4.574;2023-02-15T05:19:50;3.15;;;2.50;;
61505;SDS011;47366;51.916;4.574;2023-02-15T05:22:15;6.10;;;2.42;;
61505;SDS011;47366;51.916;4.574;2023-02-15T05:24:40;4.20;;;2.75;;
61505;SDS011;47366;51.916;4.574;2023-02-15T05:27:24;2.65;;;2.35;;
61505;SDS011;47366;51.916;4.574;2023-02-15T05:30:08;3.65;;;2.65;;
61505;SDS011;47366;51.916;4.574;2023-02-15T05:32:36;3.17;;;2.55;;
61505;SDS011;47366;51.916;4.574;2023-02-15T05:35:05;3.65;;;2.83;;
61505;SDS011;47366;51.916;4.574;2023-02-15T05:37:31;5.18;;;3.05;;
61505;SDS011;47366;51.916;4.574;2023-02-15T05:39:56;3.33;;;2.67;;
61505;SDS011;47366;51.916;4.574;2023-02-15T05:42:22;3.20;;;2.90;;
61505;SDS011;47366;51.916;4.574;2023-02-15T05:44:47;3.75;;;2.85;;
61505;SDS011;47366;51.916;4.574;2023-02-15T05:47:12;5.90;;;3.70;;
61505;SDS011;47366;51.916;4.574;2023-02-15T05:49:37;5.25;;;3.60;;
61505;SDS011;47366;51.916;4.574;2023-02-15T05:52:03;5.68;;;2.08;;
61505;SDS011;47366;51.916;4.574;2023-02-15T05:54:28;6.10;;;2.75;;
61505;SDS011;47366;51.916;4.574;2023-02-15T05:56:54;3.97;;;3.05;;
61505;SDS011;47366;51.916;4.574;2023-02-15T05:59:19;7.60;;;3.55;;
61505;SDS011;47366;51.916;4.574;2023-02-15T06:01:45;3.15;;;2.58;;
61505;SDS011;47366;51.916;4.574;2023-02-15T06:04:10;3.03;;;2.38;;
61505;SDS011;47366;51.916;4.574;2023-02-15T06:06:35;4.45;;;3.20;;
61505;SDS011;47366;51.916;4.574;2023-02-15T06:09:01;4.43;;;2.97;;
61505;SDS011;47366;51.916;4.574;2023-02-15T06:11:26;4.72;;;2.10;;
61505;SDS011;47366;51.916;4.574;2023-02-15T06:13:51;5.95;;;3.00;;
61505;SDS011;47366;51.916;4.574;2023-02-15T06:16:17;4.25;;;3.00;;
61505;SDS011;47366;51.916;4.574;2023-02-15T06:18:42;3.58;;;2.50;;
61505;SDS011;47366;51.916;4.574;2023-02-15T06:21:08;2.65;;;2.13;;
61505;SDS011;47366;51.916;4.574;2023-02-15T06:23:33;3.92;;;2.50;;
61505;SDS011;47366;51.916;4.574;2023-02-15T06:25:58;4.30;;;3.42;;
61505;SDS011;47366;51.916;4.574;2023-02-15T06:28:24;3.25;;;2.35;;
61505;SDS011;47366;51.916;4.574;2023-02-15T06:30:50;3.00;;;2.55;;
61505;SDS011;47366;51.916;4.574;2023-02-15T06:33:16;3.13;;;2.70;;
61505;SDS011;47366;51.916;4.574;2023-02-15T06:35:41;5.72;;;2.97;;
61505;SDS011;47366;51.916;4.574;2023-02-15T06:38:06;5.65;;;2.45;;
61505;SDS011;47366;51.916;4.574;2023-02-15T06:40:32;5.60;;;3.20;;
61505;SDS011;47366;51.916;4.574;2023-02-15T06:42:57;3.60;;;2.75;;
61505;SDS011;47366;51.916;4.574;2023-02-15T06:45:22;5.43;;;3.22;;
61505;SDS011;47366;51.916;4.574;2023-02-15T06:47:48;2.03;;;1.80;;
61505;SDS011;47366;51.916;4.574;2023-02-15T06:50:13;4.10;;;2.63;;
61505;SDS011;47366;51.916;4.574;2023-02-15T06:52:38;5.80;;;3.88;;
61505;SDS011;47366;51.916;4.574;2023-02-15T06:55:04;3.70;;;2.97;;
61505;SDS011;47366;51.916;4.574;2023-02-15T06:57:29;5.72;;;3.83;;
61505;SDS011;47366;51.916;4.574;2023-02-15T06:59:55;4.57;;;3.17;;
61505;SDS011;47366;51.916;4.574;2023-02-15T07:02:20;4.78;;;3.42;;
61505;SDS011;47366;51.916;4.574;2023-02-15T07:04:45;5.40;;;3.30;;
61505;SDS011;47366;51.916;4.574;2023-02-15T07:07:11;4.18;;;3.17;;
61505;SDS011;47366;51.916;4.574;2023-02-15T07:09:36;4.13;;;3.28;;
61505;SDS011;47366;51.916;4.574;2023-02-15T07:12:02;5.13;;;3.35;;
61505;SDS011;47366;51.916;4.574;2023-02-15T07:14:47;3.05;;;2.80;;
61505;SDS011;47366;51.916;4.574;2023-02-15T07:17:12;2.85;;;2.33;;
61505;SDS011;47366;51.916;4.574;2023-02-15T07:19:37;3.47;;;2.28;;
61505;SDS011;47366;51.916;4.574;2023-02-15T07:22:03;5.15;;;3.33;;
61505;SDS011;47366;51.916;4.574;2023-02-15T07:24:30;4.63;;;3.03;;
61505;SDS011;47366;51.916;4.574;2023-02-15T07:26:55;7.28;;;3.22;;
61505;SDS011;47366;51.916;4.574;2023-02-15T07:29:22;5.53;;;3.15;;
61505;SDS011;47366;51.916;4.574;2023-02-15T07:31:48;3.90;;;2.88;;
61505;SDS011;47366;51.916;4.574;2023-02-15T07:34:13;4.70;;;2.92;;
61505;SDS011;47366;51.916;4.574;2023-02-15T07:36:38;4.65;;;2.95;;
61505;SDS011;47366;51.916;4.574;2023-02-15T07:39:04;5.00;;;3.00;;
61505;SDS011;47366;51.916;4.574;2023-02-15T07:41:29;7.05;;;3.53;;
61505;SDS011;47366;51.916;4.574;2023-02-15T07:43:54;4.40;;;3.42;;
61505;SDS011;47366;51.916;4.574;2023-02-15T07:46:20;3.47;;;2.72;;
61505;SDS011;47366;51.916;4.574;2023-02-15T07:48:46;3.20;;;2.00;;
61505;SDS011;47366;51.916;4.574;2023-02-15T07:51:12;4.63;;;3.22;;
61505;SDS011;47366;51.916;4.574;2023-02-15T07:53:39;4.97;;;3.63;;
61505;SDS011;47366;51.916;4.574;2023-02-15T07:56:06;3.40;;;3.05;;
61505;SDS011;47366;51.916;4.574;2023-02-15T07:58:35;5.93;;;2.78;;
61505;SDS011;47366;51.916;4.574;2023-02-15T08:01:16;3.05;;;2.53;;
61505;SDS011;47366;51.916;4.574;2023-02-15T08:03:52;3.38;;;2.58;;
61505;SDS011;47366;51.916;4.574;2023-02-15T08:06:19;10.00;;;3.30;;
61505;SDS011;47366;51.916;4.574;2023-02-15T08:08:46;9.52;;;6.22;;
61505;SDS011;47366;51.916;4.574;2023-02-15T08:16:45;8.85;;;4.88;;
61505;SDS011;47366;51.916;4.574;2023-02-15T08:24:24;5.30;;;4.20;;
61505;SDS011;47366;51.916;4.574;2023-02-15T08:26:51;6.15;;;3.85;;
61505;SDS011;47366;51.916;4.574;2023-02-15T08:29:18;3.58;;;2.72;;
61505;SDS011;47366;51.916;4.574;2023-02-15T08:31:46;4.97;;;3.75;;
61505;SDS011;47366;51.916;4.574;2023-02-15T08:34:13;11.05;;;3.83;;
61505;SDS011;47366;51.916;4.574;2023-02-15T08:36:42;5.03;;;3.05;;
61505;SDS011;47366;51.916;4.574;2023-02-15T08:39:09;5.70;;;4.63;;
61505;SDS011;47366;51.916;4.574;2023-02-15T08:41:36;6.38;;;4.05;;
61505;SDS011;47366;51.916;4.574;2023-02-15T08:44:04;7.72;;;4.43;;
61505;SDS011;47366;51.916;4.574;2023-02-15T08:46:32;5.80;;;3.63;;
61505;SDS011;47366;51.916;4.574;2023-02-15T08:48:59;8.20;;;2.92;;
61505;SDS011;47366;51.916;4.574;2023-02-15T08:51:26;5.10;;;2.72;;
61505;SDS011;47366;51.916;4.574;2023-02-15T08:56:28;4.20;;;2.15;;
61505;SDS011;47366;51.916;4.574;2023-02-15T08:58:56;2.50;;;2.22;;
61505;SDS011;47366;51.916;4.574;2023-02-15T09:01:23;5.80;;;3.67;;
61505;SDS011;47366;51.916;4.574;2023-02-15T09:03:51;6.22;;;4.03;;
61505;SDS011;47366;51.916;4.574;2023-02-15T09:06:20;7.68;;;3.78;;
61505;SDS011;47366;51.916;4.574;2023-02-15T09:08:47;4.43;;;2.92;;
61505;SDS011;47366;51.916;4.574;2023-02-15T09:11:14;2.58;;;2.05;;
61505;SDS011;47366;51.916;4.574;2023-02-15T09:13:47;4.45;;;3.75;;
61505;SDS011;47366;51.916;4.574;2023-02-15T09:16:13;6.75;;;2.97;;
61505;SDS011;47366;51.916;4.574;2023-02-15T09:18:39;6.00;;;3.83;;
61505;SDS011;47366;51.916;4.574;2023-02-15T09:21:05;5.72;;;3.88;;
61505;SDS011;47366;51.916;4.574;2023-02-15T09:23:32;8.35;;;3.78;;
61505;SDS011;47366;51.916;4.574;2023-02-15T09:26:01;4.22;;;3.00;;
61505;SDS011;47366;51.916;4.574;2023-02-15T09:28:31;7.65;;;4.22;;
61505;SDS011;47366;51.916;4.574;2023-02-15T09:31:03;5.53;;;3.58;;
61505;SDS011;47366;51.916;4.574;2023-02-15T09:36:12;5.65;;;3.35;;
61505;SDS011;47366;51.916;4.574;2023-02-15T09:38:59;5.05;;;3.30;;
61505;SDS011;47366;51.916;4.574;2023-02-15T09:57:53;10.93;;;5.75;;
61505;SDS011;47366;51.916;4.574;2023-02-15T10:03:21;6.18;;;4.43;;
61505;SDS011;47366;51.916;4.574;2023-02-15T10:19:20;15.82;;;4.95;;
61505;SDS011;47366;51.916;4.574;2023-02-15T10:27:12;9.73;;;5.40;;
61505;SDS011;47366;51.916;4.574;2023-02-15T10:32:25;8.00;;;5.22;;
61505;SDS011;47366;51.916;4.574;2023-02-15T10:34:57;12.13;;;5.53;;
61505;SDS011;47366;51.916;4.574;2023-02-15T10:52:37;10.38;;;4.93;;
61505;SDS011;47366;51.916;4.574;2023-02-15T10:55:14;8.85;;;5.45;;
61505;SDS011;47366;51.916;4.574;2023-02-15T11:00:23;11.15;;;5.38;;
61505;SDS011;47366;51.916;4.574;2023-02-15T11:03:29;11.85;;;5.82;;
61505;SDS011;47366;51.916;4.574;2023-02-15T11:06:21;8.32;;;4.78;;
61505;SDS011;47366;51.916;4.574;2023-02-15T11:08:49;9.57;;;5.57;;
61505;SDS011;47366;51.916;4.574;2023-02-15T11:11:26;9.02;;;5.45;;
61505;SDS011;47366;51.916;4.574;2023-02-15T11:13:59;12.48;;;6.05;;
61505;SDS011;47366;51.916;4.574;2023-02-15T11:16:31;12.10;;;5.32;;
61505;SDS011;47366;51.916;4.574;2023-02-15T11:19:03;10.25;;;5.93;;
61505;SDS011;47366;51.916;4.574;2023-02-15T11:22:00;10.45;;;5.82;;
61505;SDS011;47366;51.916;4.574;2023-02-15T11:24:26;11.45;;;5.70;;
61505;SDS011;47366;51.916;4.574;2023-02-15T11:26:56;8.60;;;5.50;;
61505;SDS011;47366;51.916;4.574;2023-02-15T11:29:27;9.30;;;4.70;;
61505;SDS011;47366;51.916;4.574;2023-02-15T11:31:54;10.93;;;5.60;;
61505;SDS011;47366;51.916;4.574;2023-02-15T11:37:14;10.85;;;5.25;;
61505;SDS011;47366;51.916;4.574;2023-02-15T11:39:44;12.27;;;6.95;;
61505;SDS011;47366;51.916;4.574;2023-02-15T11:42:16;9.65;;;5.28;;
61505;SDS011;47366;51.916;4.574;2023-02-15T11:45:11;9.25;;;5.32;;
61505;SDS011;47366;51.916;4.574;2023-02-15T11:47:41;9.85;;;5.82;;
61505;SDS011;47366;51.916;4.574;2023-02-15T11:50:18;14.38;;;6.53;;
61505;SDS011;47366;51.916;4.574;2023-02-15T11:52:51;13.48;;;5.07;;
61505;SDS011;47366;51.916;4.574;2023-02-15T11:55:20;15.20;;;6.10;;
61505;SDS011;47366;51.916;4.574;2023-02-15T11:57:50;8.77;;;5.25;;
61505;SDS011;47366;51.916;4.574;2023-02-15T12:00:38;10.95;;;6.03;;
61505;SDS011;47366;51.916;4.574;2023-02-15T12:06:04;9.15;;;5.25;;
61505;SDS011;47366;51.916;4.574;2023-02-15T12:08:42;13.15;;;7.05;;
61505;SDS011;47366;51.916;4.574;2023-02-15T12:11:35;7.95;;;5.32;;
61505;SDS011;47366;51.916;4.574;2023-02-15T12:14:02;12.63;;;6.35;;
61505;SDS011;47366;51.916;4.574;2023-02-15T12:16:31;16.60;;;8.10;;
61505;SDS011;47366;51.916;4.574;2023-02-15T12:19:04;10.98;;;6.00;;
61505;SDS011;47366;51.916;4.574;2023-02-15T12:21:31;15.52;;;6.78;;
61505;SDS011;47366;51.916;4.574;2023-02-15T12:24:18;12.13;;;6.63;;
61505;SDS011;47366;51.916;4.574;2023-02-15T12:27:03;10.48;;;6.57;;
61505;SDS011;47366;51.916;4.574;2023-02-15T12:29:34;13.20;;;6.50;;
61505;SDS011;47366;51.916;4.574;2023-02-15T12:32:05;10.73;;;5.55;;
61505;SDS011;47366;51.916;4.574;2023-02-15T12:34:38;13.38;;;6.57;;
61505;SDS011;47366;51.916;4.574;2023-02-15T12:37:25;10.33;;;5.60;;
61505;SDS011;47366;51.916;4.574;2023-02-15T12:40:00;9.05;;;5.00;;
61505;SDS011;47366;51.916;4.574;2023-02-15T12:42:27;11.55;;;6.20;;
61505;SDS011;47366;51.916;4.574;2023-02-15T12:45:50;9.63;;;5.50;;
61505;SDS011;47366;51.916;4.574;2023-02-15T12:48:08;9.88;;;6.05;;
61505;SDS011;47366;51.916;4.574;2023-02-15T12:50:45;10.73;;;5.53;;
61505;SDS011;47366;51.916;4.574;2023-02-15T12:55:58;13.40;;;6.50;;
61505;SDS011;47366;51.916;4.574;2023-02-15T12:58:29;13.40;;;5.93;;
61505;SDS011;47366;51.916;4.574;2023-02-15T13:03:33;13.98;;;7.10;;
61505;SDS011;47366;51.916;4.574;2023-02-15T13:05:59;11.02;;;6.20;;
61505;SDS011;47366;51.916;4.574;2023-02-15T13:08:31;11.93;;;6.05;;
61505;SDS011;47366;51.916;4.574;2023-02-15T13:11:09;11.75;;;6.43;;
61505;SDS011;47366;51.916;4.574;2023-02-15T13:13:50;11.82;;;6.55;;
61505;SDS011;47366;51.916;4.574;2023-02-15T13:16:15;10.23;;;5.97;;
61505;SDS011;47366;51.916;4.574;2023-02-15T13:18:46;10.23;;;5.78;;
61505;SDS011;47366;51.916;4.574;2023-02-15T13:21:16;10.43;;;5.75;;
61505;SDS011;47366;51.916;4.574;2023-02-15T13:23:50;12.80;;;5.93;;
61505;SDS011;47366;51.916;4.574;2023-02-15T13:26:18;16.20;;;6.85;;
61505;SDS011;47366;51.916;4.574;2023-02-15T13:28:50;13.80;;;7.13;;
61505;SDS011;47366;51.916;4.574;2023-02-15T13:31:20;13.68;;;6.70;;
61505;SDS011;47366;51.916;4.574;2023-02-15T13:36:30;13.00;;;6.93;;
61505;SDS011;47366;51.916;4.574;2023-02-15T13:50:38;12.10;;;6.63;;
61505;SDS011;47366;51.916;4.574;2023-02-15T13:59:19;10.27;;;6.28;;
61505;SDS011;47366;51.916;4.574;2023-02-15T14:07:55;13.38;;;6.82;;
61505;SDS011;47366;51.916;4.574;2023-02-15T14:15:49;10.82;;;6.07;;
61505;SDS011;47366;51.916;4.574;2023-02-15T14:18:35;13.95;;;7.38;;
61505;SDS011;47366;51.916;4.574;2023-02-15T14:21:10;13.30;;;7.32;;
61505;SDS011;47366;51.916;4.574;2023-02-15T14:26:37;11.05;;;6.50;;
61505;SDS011;47366;51.916;4.574;2023-02-15T14:32:46;14.25;;;6.10;;
61505;SDS011;47366;51.916;4.574;2023-02-15T14:35:14;10.38;;;6.03;;
61505;SDS011;47366;51.916;4.574;2023-02-15T14:46:09;13.30;;;6.95;;
61505;SDS011;47366;51.916;4.574;2023-02-15T14:48:51;10.05;;;6.30;;
61505;SDS011;47366;51.916;4.574;2023-02-15T14:54:08;13.18;;;6.60;;
61505;SDS011;47366;51.916;4.574;2023-02-15T14:56:34;17.27;;;8.05;;
61505;SDS011;47366;51.916;4.574;2023-02-15T14:59:22;13.88;;;8.02;;
61505;SDS011;47366;51.916;4.574;2023-02-15T15:01:55;11.73;;;7.28;;
61505;SDS011;47366;51.916;4.574;2023-02-15T15:04:27;13.40;;;7.28;;
61505;SDS011;47366;51.916;4.574;2023-02-15T15:07:18;11.48;;;6.60;;
61505;SDS011;47366;51.916;4.574;2023-02-15T15:14:45;15.98;;;7.63;;
61505;SDS011;47366;51.916;4.574;2023-02-15T15:22:26;12.00;;;7.25;;
61505;SDS011;47366;51.916;4.574;2023-02-15T15:25:00;13.93;;;6.78;;
61505;SDS011;47366;51.916;4.574;2023-02-15T15:27:40;14.88;;;6.95;;
61505;SDS011;47366;51.916;4.574;2023-02-15T15:51:56;13.70;;;6.13;;
61505;SDS011;47366;51.916;4.574;2023-02-15T15:54:25;13.05;;;7.22;;
61505;SDS011;47366;51.916;4.574;2023-02-15T15:56:56;13.85;;;7.22;;
61505;SDS011;47366;51.916;4.574;2023-02-15T15:59:30;11.60;;;6.60;;
61505;SDS011;47366;51.916;4.574;2023-02-15T16:02:09;13.13;;;6.80;;
61505;SDS011;47366;51.916;4.574;2023-02-15T16:04:37;11.90;;;6.30;;
61505;SDS011;47366;51.916;4.574;2023-02-15T16:09:57;12.00;;;6.88;;
61505;SDS011;47366;51.916;4.574;2023-02-15T16:12:27;13.95;;;7.43;;
61505;SDS011;47366;51.916;4.574;2023-02-15T16:14:55;11.15;;;6.90;;
61505;SDS011;47366;51.916;4.574;2023-02-15T16:17:22;16.65;;;7.50;;
61505;SDS011;47366;51.916;4.574;2023-02-15T16:19:59;10.52;;;6.57;;
61505;SDS011;47366;51.916;4.574;2023-02-15T16:22:31;11.13;;;6.75;;
61505;SDS011;47366;51.916;4.574;2023-02-15T16:28:05;13.23;;;5.88;;
61505;SDS011;47366;51.916;4.574;2023-02-15T16:30:37;14.10;;;5.88;;
61505;SDS011;47366;51.916;4.574;2023-02-15T16:33:11;12.80;;;6.30;;
61505;SDS011;47366;51.916;4.574;2023-02-15T16:35:41;12.07;;;7.03;;
61505;SDS011;47366;51.916;4.574;2023-02-15T16:43:43;12.75;;;6.90;;
61505;SDS011;47366;51.916;4.574;2023-02-15T16:46:18;12.60;;;6.43;;
61505;SDS011;47366;51.916;4.574;2023-02-15T16:48:51;11.15;;;6.25;;
61505;SDS011;47366;51.916;4.574;2023-02-15T16:51:20;9.75;;;6.05;;
61505;SDS011;47366;51.916;4.574;2023-02-15T16:53:51;13.18;;;6.90;;
61505;SDS011;47366;51.916;4.574;2023-02-15T16:56:25;10.73;;;6.05;;
61505;SDS011;47366;51.916;4.574;2023-02-15T16:58:55;10.07;;;5.90;;
61505;SDS011;47366;51.916;4.574;2023-02-15T17:01:23;11.43;;;5.60;;
61505;SDS011;47366;51.916;4.574;2023-02-15T17:04:10;11.02;;;6.30;;
61505;SDS011;47366;51.916;4.574;2023-02-15T17:07:00;14.43;;;6.68;;
61505;SDS011;47366;51.916;4.574;2023-02-15T17:09:29;12.25;;;6.80;;
61505;SDS011;47366;51.916;4.574;2023-02-15T17:11:54;9.82;;;5.53;;
61505;SDS011;47366;51.916;4.574;2023-02-15T17:14:21;14.90;;;6.60;;
61505;SDS011;47366;51.916;4.574;2023-02-15T17:17:02;13.70;;;5.78;;
61505;SDS011;47366;51.916;4.574;2023-02-15T17:19:33;11.23;;;6.10;;
61505;SDS011;47366;51.916;4.574;2023-02-15T17:22:14;12.30;;;5.85;;
61505;SDS011;47366;51.916;4.574;2023-02-15T17:24:44;10.85;;;6.00;;
61505;SDS011;47366;51.916;4.574;2023-02-15T17:29:48;14.13;;;7.20;;
61505;SDS011;47366;51.916;4.574;2023-02-15T17:32:20;8.95;;;5.47;;
61505;SDS011;47366;51.916;4.574;2023-02-15T17:37:28;11.93;;;5.05;;
61505;SDS011;47366;51.916;4.574;2023-02-15T17:39:54;14.77;;;7.32;;
61505;SDS011;47366;51.916;4.574;2023-02-15T17:42:21;11.18;;;6.20;;
61505;SDS011;47366;51.916;4.574;2023-02-15T17:44:47;11.90;;;6.82;;
61505;SDS011;47366;51.916;4.574;2023-02-15T17:47:14;8.70;;;5.28;;
61505;SDS011;47366;51.916;4.574;2023-02-15T17:49:43;11.23;;;5.90;;
61505;SDS011;47366;51.916;4.574;2023-02-15T17:52:11;11.20;;;5.72;;
61505;SDS011;47366;51.916;4.574;2023-02-15T17:54:40;14.18;;;5.63;;
61505;SDS011;47366;51.916;4.574;2023-02-15T17:57:25;7.30;;;4.50;;
61505;SDS011;47366;51.916;4.574;2023-02-15T17:59:51;11.65;;;5.63;;
61505;SDS011;47366;51.916;4.574;2023-02-15T18:02:35;7.03;;;4.80;;
61505;SDS011;47366;51.916;4.574;2023-02-15T18:05:19;13.43;;;5.90;;
61505;SDS011;47366;51.916;4.574;2023-02-15T18:08:04;9.43;;;5.22;;
61505;SDS011;47366;51.916;4.574;2023-02-15T18:10:54;10.00;;;6.15;;
61505;SDS011;47366;51.916;4.574;2023-02-15T18:13:38;12.85;;;5.38;;
61505;SDS011;47366;51.916;4.574;2023-02-15T18:16:03;14.32;;;6.45;;
61505;SDS011;47366;51.916;4.574;2023-02-15T18:18:28;9.05;;;5.55;;
61505;SDS011;47366;51.916;4.574;2023-02-15T18:20:54;9.73;;;5.78;;
61505;SDS011;47366;51.916;4.574;2023-02-15T18:23:19;11.75;;;5.47;;
61505;SDS011;47366;51.916;4.574;2023-02-15T18:25:44;10.88;;;5.88;;
61505;SDS011;47366;51.916;4.574;2023-02-15T18:28:10;12.05;;;5.75;;
61505;SDS011;47366;51.916;4.574;2023-02-15T18:30:35;10.75;;;6.28;;
61505;SDS011;47366;51.916;4.574;2023-02-15T18:33:09;11.60;;;6.03;;
61505;SDS011;47366;51.916;4.574;2023-02-15T18:36:04;10.00;;;5.35;;
61505;SDS011;47366;51.916;4.574;2023-02-15T18:38:31;10.48;;;5.50;;